createdAt,value
2022-12-28T00:01:18.015Z,9.57
2022-12-28T00:03:46.099Z,6.22
2022-12-28T00:06:13.584Z,6.53
2022-12-28T00:08:40.980Z,9.43
2022-12-28T00:11:20.605Z,11.52
2022-12-28T00:13:59.716Z,12.70
2022-12-28T00:16:31.175Z,14.93
2022-12-28T00:19:07.190Z,7.10
2022-12-28T00:21:34.597Z,9.05
2022-12-28T00:24:02.360Z,9.27
2022-12-28T00:26:32.125Z,12.40
2022-12-28T00:29:04.720Z,9.98
2022-12-28T00:31:34.209Z,8.05
2022-12-28T00:34:02.306Z,6.15
2022-12-28T00:37:09.269Z,7.72
2022-12-28T00:39:16.254Z,9.32
2022-12-28T00:41:43.256Z,8.60
2022-12-28T00:44:10.958Z,8.85
2022-12-28T00:46:38.122Z,10.25
2022-12-28T00:49:05.109Z,8.10
2022-12-28T00:51:32.156Z,8.13
2022-12-28T00:53:59.317Z,9.02
2022-12-28T00:56:26.267Z,13.20
2022-12-28T00:58:58.654Z,9.25
2022-12-28T01:01:28.080Z,9.60
2022-12-28T01:03:59.390Z,11.35
2022-12-28T01:06:27.963Z,9.88
2022-12-28T01:08:55.124Z,8.63
2022-12-28T01:11:24.488Z,12.25
2022-12-28T01:13:53.295Z,9.02
2022-12-28T01:16:24.757Z,11.98
2022-12-28T01:18:56.006Z,12.30
2022-12-28T01:21:25.514Z,10.13
2022-12-28T01:23:58.523Z,13.27
2022-12-28T01:26:26.886Z,12.05
2022-12-28T01:28:54.346Z,10.23
2022-12-28T01:31:21.825Z,10.65
2022-12-28T01:33:49.550Z,7.85
2022-12-28T01:36:16.540Z,11.98
2022-12-28T01:38:44.647Z,11.77
2022-12-28T01:41:14.101Z,11.90
2022-12-28T01:43:48.114Z,12.60
2022-12-28T01:46:29.076Z,10.73
2022-12-28T01:49:01.642Z,11.52
2022-12-28T01:51:31.859Z,10.90
2022-12-28T01:54:00.890Z,14.35
2022-12-28T01:56:28.590Z,11.90
2022-12-28T01:58:57.727Z,12.25
2022-12-28T02:01:25.501Z,11.45
2022-12-28T02:03:52.667Z,10.88
2022-12-28T02:06:20.093Z,13.85
2022-12-28T02:08:49.991Z,13.38
2022-12-28T02:11:19.031Z,12.95
2022-12-28T02:13:51.813Z,10.93
2022-12-28T02:16:19.716Z,11.68
2022-12-28T02:18:47.943Z,10.15
2022-12-28T02:21:16.105Z,11.88
2022-12-28T02:24:14.893Z,10.50
2022-12-28T02:26:49.227Z,13.10
2022-12-28T02:29:35.127Z,11.30
2022-12-28T02:32:40.378Z,14.35
2022-12-28T02:35:17.754Z,12.25
2022-12-28T02:38:06.803Z,13.65
2022-12-28T02:40:41.178Z,13.30
2022-12-28T02:43:08.565Z,12.95
2022-12-28T02:46:01.582Z,12.95
2022-12-28T02:48:56.765Z,14.07
2022-12-28T02:51:35.690Z,13.80
2022-12-28T02:54:50.423Z,16.13
2022-12-28T02:57:55.714Z,13.23
2022-12-28T03:00:26.453Z,10.63
2022-12-28T03:03:11.338Z,15.23
2022-12-28T03:06:09.025Z,10.90
2022-12-28T03:09:03.919Z,13.02
2022-12-28T03:11:58.182Z,15.32
2022-12-28T03:14:34.368Z,15.00
2022-12-28T03:17:22.067Z,22.15
2022-12-28T03:20:16.287Z,15.63
2022-12-28T03:23:02.974Z,12.85
2022-12-28T03:25:54.271Z,17.83
2022-12-28T03:28:45.538Z,15.10
2022-12-28T03:31:17.717Z,12.93
2022-12-28T03:33:50.315Z,16.05
2022-12-28T03:36:39.927Z,15.70
2022-12-28T03:39:21.577Z,15.85
2022-12-28T03:42:18.653Z,16.50
2022-12-28T03:44:52.575Z,15.63
2022-12-28T03:47:21.516Z,13.48
2022-12-28T03:49:48.514Z,19.58
2022-12-28T03:52:16.182Z,14.07
2022-12-28T03:54:43.332Z,17.15
2022-12-28T03:57:10.383Z,21.08
2022-12-28T03:59:37.401Z,18.10
2022-12-28T04:02:04.422Z,18.65
2022-12-28T04:04:31.366Z,16.23
2022-12-28T04:06:58.402Z,15.00
2022-12-28T04:09:25.468Z,14.90
2022-12-28T04:11:52.380Z,14.02
2022-12-28T04:14:19.172Z,14.90
2022-12-28T04:16:46.100Z,13.35
2022-12-28T04:19:12.985Z,14.65
2022-12-28T04:21:40.804Z,12.48
2022-12-28T04:24:07.949Z,15.45
2022-12-28T04:26:34.824Z,11.82
2022-12-28T04:29:02.602Z,12.43
2022-12-28T04:31:30.500Z,11.20
2022-12-28T04:34:00.706Z,11.35
2022-12-28T04:36:27.894Z,10.95
2022-12-28T04:38:54.914Z,11.98
2022-12-28T04:41:22.003Z,14.57
2022-12-28T04:43:49.046Z,11.00
2022-12-28T04:46:17.571Z,13.68
2022-12-28T04:48:44.630Z,11.48
2022-12-28T04:51:17.898Z,10.27
2022-12-28T04:53:44.926Z,13.45
2022-12-28T04:56:13.529Z,9.35
2022-12-28T04:58:41.301Z,8.05
2022-12-28T05:01:10.988Z,9.50
2022-12-28T05:03:39.514Z,10.40
2022-12-28T05:06:09.353Z,12.93
2022-12-28T05:08:37.563Z,13.98
2022-12-28T05:11:07.082Z,8.57
2022-12-28T05:13:34.361Z,8.70
2022-12-28T05:16:03.587Z,9.80
2022-12-28T05:18:30.781Z,10.70
2022-12-28T05:21:16.314Z,9.23
2022-12-28T05:23:43.944Z,9.45
2022-12-28T05:26:17.973Z,10.98
2022-12-28T05:28:45.517Z,9.70
2022-12-28T05:31:15.374Z,12.32
2022-12-28T05:33:43.391Z,13.43
2022-12-28T05:36:13.880Z,17.27
2022-12-28T05:38:41.160Z,15.60
2022-12-28T05:41:13.088Z,11.98
2022-12-28T05:43:40.613Z,13.30
2022-12-28T05:46:11.392Z,15.95
2022-12-28T05:48:41.232Z,15.25
2022-12-28T05:51:10.495Z,13.43
2022-12-28T05:53:38.397Z,15.23
2022-12-28T05:56:14.681Z,15.48
2022-12-28T06:01:14.837Z,12.68
2022-12-28T06:03:43.331Z,11.50
2022-12-28T06:06:14.540Z,13.63
2022-12-28T06:08:42.565Z,12.77
2022-12-28T06:11:12.399Z,14.32
2022-12-28T06:13:39.746Z,10.90
2022-12-28T06:16:17.722Z,14.63
2022-12-28T06:18:49.408Z,11.82
2022-12-28T06:21:30.646Z,9.98
2022-12-28T06:24:00.304Z,7.72
2022-12-28T06:26:29.659Z,7.10
2022-12-28T06:28:57.000Z,8.73
2022-12-28T06:31:29.708Z,5.72
2022-12-28T06:33:59.325Z,4.85
2022-12-28T06:36:29.417Z,6.90
2022-12-28T06:38:57.950Z,6.07
2022-12-28T06:41:25.954Z,9.48
2022-12-28T06:43:54.250Z,8.07
2022-12-28T06:46:22.678Z,3.75
2022-12-28T06:48:50.772Z,6.68
2022-12-28T06:51:23.939Z,5.43
2022-12-28T06:53:52.297Z,4.22
2022-12-28T06:56:21.120Z,5.00
2022-12-28T06:59:00.338Z,4.85
2022-12-28T07:01:37.816Z,3.33
2022-12-28T07:04:07.342Z,4.88
2022-12-28T07:06:40.126Z,3.28
2022-12-28T07:09:10.229Z,5.97
2022-12-28T07:11:37.358Z,7.07
2022-12-28T07:14:04.526Z,4.63
2022-12-28T07:21:30.773Z,4.85
2022-12-28T07:23:58.294Z,4.28
2022-12-28T07:26:28.575Z,7.25
2022-12-28T07:28:56.983Z,6.20
2022-12-28T07:31:43.631Z,3.67
2022-12-28T07:34:16.202Z,5.22
2022-12-28T07:40:36.051Z,3.42
2022-12-28T07:43:06.111Z,5.60
2022-12-28T07:49:13.841Z,3.60
2022-12-28T07:51:40.968Z,5.80
2022-12-28T07:54:08.183Z,2.95
2022-12-28T08:05:05.137Z,3.20
2022-12-28T08:07:32.040Z,4.70
2022-12-28T08:09:58.969Z,3.45
2022-12-28T08:12:26.119Z,3.97
2022-12-28T08:14:53.120Z,4.18
2022-12-28T08:17:21.313Z,3.30
2022-12-28T08:19:50.042Z,6.10
2022-12-28T08:22:17.480Z,4.72
2022-12-28T08:24:44.501Z,3.22
2022-12-28T08:27:11.358Z,4.43
2022-12-28T08:29:39.342Z,4.95
2022-12-28T08:32:07.094Z,3.83
2022-12-28T08:34:34.279Z,6.32
2022-12-28T08:37:01.266Z,3.03
2022-12-28T08:39:28.480Z,4.55
2022-12-28T08:41:55.392Z,2.25
2022-12-28T08:44:22.325Z,4.18
2022-12-28T08:46:49.489Z,4.03
2022-12-28T08:49:16.499Z,5.18
2022-12-28T08:51:43.580Z,3.10
2022-12-28T08:54:13.228Z,3.63
2022-12-28T08:56:42.659Z,4.03
2022-12-28T08:59:15.908Z,3.60
2022-12-28T09:01:44.429Z,2.80
2022-12-28T09:04:20.784Z,6.20
2022-12-28T09:06:49.195Z,3.17
2022-12-28T09:09:17.781Z,2.55
2022-12-28T09:11:45.002Z,3.85
2022-12-28T09:14:22.089Z,3.33
2022-12-28T09:16:52.324Z,4.40
2022-12-28T09:19:19.596Z,3.38
2022-12-28T09:21:49.066Z,2.63
2022-12-28T09:24:16.335Z,4.32
2022-12-28T09:26:43.781Z,3.30
2022-12-28T09:29:13.671Z,3.35
2022-12-28T09:31:41.777Z,3.50
2022-12-28T09:37:00.512Z,2.55
2022-12-28T09:39:28.025Z,6.30
2022-12-28T09:42:01.133Z,3.08
2022-12-28T09:44:46.461Z,2.40
2022-12-28T09:47:29.200Z,5.32
2022-12-28T09:50:17.400Z,4.88
2022-12-28T09:53:16.008Z,3.22
2022-12-28T09:55:53.191Z,4.07
2022-12-28T09:58:22.079Z,2.65
2022-12-28T10:00:56.167Z,2.50
2022-12-28T10:03:27.188Z,4.38
2022-12-28T10:05:56.537Z,7.38
2022-12-28T10:08:24.745Z,3.45
2022-12-28T10:11:00.764Z,3.00
2022-12-28T10:16:23.519Z,4.55
2022-12-28T10:18:51.312Z,2.70
2022-12-28T10:21:22.331Z,5.35
2022-12-28T10:24:29.847Z,3.17
2022-12-28T10:26:44.475Z,3.88
2022-12-28T10:29:20.663Z,2.15
2022-12-28T10:32:06.607Z,2.30
2022-12-28T10:34:35.615Z,2.83
2022-12-28T10:37:14.497Z,3.33
2022-12-28T10:39:53.835Z,3.90
2022-12-28T10:42:29.507Z,3.92
2022-12-28T10:45:20.978Z,4.70
2022-12-28T10:47:51.355Z,3.60
2022-12-28T10:50:40.697Z,3.90
2022-12-28T10:53:26.551Z,2.85
2022-12-28T10:56:12.259Z,4.57
2022-12-28T10:58:42.146Z,3.58
2022-12-28T11:01:15.398Z,2.40
2022-12-28T11:03:45.706Z,2.67
2022-12-28T11:06:27.268Z,2.50
2022-12-28T11:09:23.000Z,1.90
2022-12-28T11:11:52.421Z,2.25
2022-12-28T11:14:31.803Z,4.43
2022-12-28T11:17:07.462Z,3.83
2022-12-28T11:19:34.459Z,3.73
2022-12-28T11:22:01.992Z,4.80
2022-12-28T11:24:28.955Z,2.10
2022-12-28T11:26:55.812Z,4.13
2022-12-28T11:29:22.910Z,3.13
2022-12-28T11:32:13.054Z,3.78
2022-12-28T11:34:40.876Z,2.67
2022-12-28T11:37:14.026Z,4.35
2022-12-28T11:39:46.592Z,2.58
2022-12-28T11:42:39.455Z,4.07
2022-12-28T11:45:15.285Z,2.78
2022-12-28T11:47:42.555Z,4.18
2022-12-28T11:50:34.559Z,5.40
2022-12-28T11:53:04.747Z,3.05
2022-12-28T11:55:37.748Z,2.17
2022-12-28T11:58:42.583Z,3.58
2022-12-28T12:01:37.240Z,2.45
2022-12-28T12:04:11.848Z,3.22
2022-12-28T12:06:42.416Z,4.10
2022-12-28T12:09:21.677Z,2.13
2022-12-28T12:12:03.853Z,2.58
2022-12-28T12:14:58.439Z,4.90
2022-12-28T12:17:39.748Z,3.83
2022-12-28T12:20:42.239Z,1.80
2022-12-28T12:23:20.117Z,2.15
2022-12-28T12:25:55.085Z,5.10
2022-12-28T12:28:44.214Z,2.15
2022-12-28T12:31:33.665Z,1.80
2022-12-28T12:34:19.763Z,3.10
2022-12-28T12:37:17.765Z,4.15
2022-12-28T12:40:09.735Z,4.57
2022-12-28T12:42:45.240Z,1.92
2022-12-28T12:45:14.877Z,4.20
2022-12-28T12:47:44.697Z,2.33
2022-12-28T12:50:17.813Z,2.58
2022-12-28T12:53:09.118Z,2.13
2022-12-28T12:56:07.265Z,1.63
2022-12-28T12:58:46.405Z,2.67
2022-12-28T13:01:19.212Z,2.25
2022-12-28T13:03:54.093Z,2.63
2022-12-28T13:06:24.497Z,1.80
2022-12-28T13:08:53.542Z,1.92
2022-12-28T13:11:21.453Z,2.38
2022-12-28T13:13:50.707Z,2.47
2022-12-28T13:16:27.339Z,3.10
2022-12-28T13:21:28.580Z,2.45
2022-12-28T13:23:55.669Z,2.20
2022-12-28T13:26:28.297Z,3.78
2022-12-28T13:29:03.780Z,2.42
2022-12-28T13:31:37.287Z,3.20
2022-12-28T13:34:24.606Z,3.92
2022-12-28T13:36:54.529Z,2.60
2022-12-28T13:39:22.250Z,1.63
2022-12-28T13:41:58.294Z,3.50
2022-12-28T13:44:34.157Z,3.63
2022-12-28T13:47:09.952Z,2.83
2022-12-28T13:49:55.308Z,5.78
2022-12-28T13:52:44.119Z,1.95
2022-12-28T13:55:16.053Z,3.30
2022-12-28T13:57:52.631Z,2.15
2022-12-28T14:05:18.733Z,2.08
2022-12-28T14:07:46.932Z,3.15
2022-12-28T14:10:13.951Z,5.90
2022-12-28T14:19:05.031Z,3.08
2022-12-28T14:21:44.064Z,4.32
2022-12-28T14:24:16.208Z,3.90
2022-12-28T14:26:51.892Z,1.98
2022-12-28T14:29:24.158Z,4.20
2022-12-28T14:32:02.749Z,3.97
2022-12-28T14:34:32.054Z,2.88
2022-12-28T14:36:59.254Z,2.92
2022-12-28T14:39:40.068Z,3.72
2022-12-28T14:42:35.418Z,4.38
2022-12-28T14:46:04.909Z,1.50
2022-12-28T14:48:40.874Z,1.88
2022-12-28T14:51:17.302Z,1.50
2022-12-28T14:53:45.580Z,2.10
2022-12-28T14:56:18.471Z,2.22
2022-12-28T14:58:59.796Z,2.45
2022-12-28T15:01:44.980Z,4.30
2022-12-28T15:04:36.749Z,3.30
2022-12-28T15:07:09.163Z,1.75
2022-12-28T15:09:36.506Z,2.63
2022-12-28T15:12:14.887Z,1.92
2022-12-28T15:14:42.773Z,2.78
2022-12-28T15:17:10.529Z,2.17
2022-12-28T15:19:37.557Z,2.13
2022-12-28T15:22:05.051Z,1.88
2022-12-28T15:24:34.314Z,1.85
2022-12-28T15:27:02.723Z,2.17
2022-12-28T15:29:56.097Z,3.90
2022-12-28T15:32:17.072Z,2.22
2022-12-28T15:34:43.965Z,3.35
2022-12-28T15:37:11.363Z,2.42
2022-12-28T15:39:38.219Z,4.03
2022-12-28T15:42:05.079Z,2.78
2022-12-28T15:44:31.879Z,2.60
2022-12-28T15:46:58.984Z,3.20
2022-12-28T15:49:26.677Z,4.22
2022-12-28T15:51:53.571Z,2.25
2022-12-28T15:54:20.460Z,2.28
2022-12-28T15:56:53.711Z,1.52
2022-12-28T15:59:20.786Z,1.90
2022-12-28T16:01:48.318Z,1.60
2022-12-28T16:04:15.561Z,1.73
2022-12-28T16:06:45.028Z,3.45
2022-12-28T16:09:13.440Z,1.70
2022-12-28T16:11:41.771Z,3.30
2022-12-28T16:14:14.395Z,4.78
2022-12-28T16:16:41.950Z,1.52
2022-12-28T16:19:10.518Z,1.67
2022-12-28T16:21:37.445Z,3.25
2022-12-28T16:24:05.117Z,1.60
2022-12-28T16:26:32.207Z,1.77
2022-12-28T16:29:00.271Z,1.80
2022-12-28T16:31:32.694Z,1.50
2022-12-28T16:34:05.918Z,2.40
2022-12-28T16:36:33.428Z,1.92
2022-12-28T16:39:02.121Z,2.15
2022-12-28T16:41:36.321Z,1.48
2022-12-28T16:44:06.800Z,1.67
2022-12-28T16:46:33.865Z,1.58
2022-12-28T16:49:02.404Z,1.85
2022-12-28T16:51:30.284Z,4.47
2022-12-28T16:53:57.584Z,3.35
2022-12-28T16:56:24.511Z,3.35
2022-12-28T16:58:56.144Z,2.72
2022-12-28T17:01:23.198Z,1.92
2022-12-28T17:03:50.483Z,3.03
2022-12-28T17:23:36.460Z,3.15
2022-12-28T17:26:03.426Z,1.90
2022-12-28T17:28:30.305Z,1.83
2022-12-28T17:31:09.237Z,1.80
2022-12-28T17:33:39.771Z,5.05
2022-12-28T17:36:08.011Z,1.95
2022-12-28T17:38:35.173Z,2.10
2022-12-28T17:41:10.225Z,2.40
2022-12-28T17:43:37.183Z,4.90
2022-12-28T17:46:04.783Z,4.05
2022-12-28T17:48:31.909Z,3.00
2022-12-28T17:51:04.400Z,2.20
2022-12-28T17:53:36.265Z,4.32
2022-12-28T17:56:04.809Z,3.95
2022-12-28T17:58:32.205Z,3.75
2022-12-28T18:00:59.828Z,2.38
2022-12-28T18:03:33.458Z,2.88
2022-12-28T18:06:01.079Z,3.58
2022-12-28T18:08:28.281Z,1.85
2022-12-28T18:10:55.540Z,3.65
2022-12-28T18:13:23.345Z,2.63
2022-12-28T18:15:50.488Z,2.55
2022-12-28T18:18:17.917Z,3.17
2022-12-28T18:20:45.232Z,1.95
2022-12-28T18:23:12.114Z,2.65
2022-12-28T18:25:39.310Z,2.63
2022-12-28T18:28:06.682Z,1.90
2022-12-28T18:30:34.445Z,2.42
2022-12-28T18:33:01.764Z,2.30
2022-12-28T18:35:28.722Z,2.47
2022-12-28T18:37:55.831Z,2.30
2022-12-28T18:40:24.066Z,2.15
2022-12-28T18:42:51.265Z,3.10
2022-12-28T18:45:18.480Z,4.10
2022-12-28T18:47:45.549Z,2.83
2022-12-28T18:50:12.422Z,2.15
2022-12-28T18:52:40.661Z,1.95
2022-12-28T18:55:08.121Z,1.48
2022-12-28T18:57:35.061Z,1.60
2022-12-28T19:00:02.167Z,2.63
2022-12-28T19:02:29.499Z,2.10
2022-12-28T19:04:56.690Z,2.38
2022-12-28T19:07:23.749Z,2.17
2022-12-28T19:10:13.918Z,1.73
2022-12-28T19:12:42.761Z,1.90
2022-12-28T19:15:10.686Z,1.92
2022-12-28T19:17:37.563Z,2.40
2022-12-28T19:20:05.077Z,4.43
2022-12-28T19:22:32.449Z,3.15
2022-12-28T19:24:59.545Z,4.45
2022-12-28T19:27:26.533Z,3.67
2022-12-28T19:29:53.685Z,3.22
2022-12-28T19:32:20.590Z,3.38
2022-12-28T19:34:47.686Z,2.67
2022-12-28T19:37:14.749Z,2.40
2022-12-28T19:39:41.859Z,2.22
2022-12-28T19:42:10.589Z,2.40
2022-12-28T19:44:37.614Z,2.10
2022-12-28T19:47:05.157Z,2.05
2022-12-28T19:49:32.359Z,2.50
2022-12-28T19:51:59.233Z,2.45
2022-12-28T19:54:26.157Z,1.98
2022-12-28T19:56:57.931Z,2.38
2022-12-28T19:59:25.018Z,2.33
2022-12-28T20:01:52.285Z,2.13
2022-12-28T20:04:19.237Z,2.92
2022-12-28T20:06:46.210Z,2.00
2022-12-28T20:09:14.619Z,4.43
2022-12-28T20:11:42.395Z,3.35
2022-12-28T20:14:12.457Z,4.30
2022-12-28T20:16:39.704Z,2.63
2022-12-28T20:19:08.228Z,3.25
2022-12-28T20:21:37.596Z,3.88
2022-12-28T20:24:06.095Z,3.72
2022-12-28T20:26:33.275Z,3.88
2022-12-28T20:29:01.600Z,3.25
2022-12-28T20:31:29.298Z,3.75
2022-12-28T20:33:56.686Z,2.78
2022-12-28T20:36:26.525Z,3.13
2022-12-28T20:38:56.311Z,5.30
2022-12-28T20:41:46.401Z,4.18
2022-12-28T20:44:17.252Z,3.50
2022-12-28T20:46:45.391Z,2.50
2022-12-28T20:49:12.868Z,3.67
2022-12-28T20:51:42.502Z,2.97
2022-12-28T20:54:12.992Z,3.38
2022-12-28T20:56:42.379Z,3.10
2022-12-28T20:59:11.054Z,2.63
2022-12-28T21:01:39.141Z,2.97
2022-12-28T21:04:06.917Z,4.43
2022-12-28T21:06:33.976Z,5.35
2022-12-28T21:09:00.967Z,4.13
2022-12-28T21:11:31.194Z,2.60
2022-12-28T21:13:58.142Z,5.47
2022-12-28T21:16:25.543Z,4.03
2022-12-28T21:18:52.532Z,4.47
2022-12-28T21:21:22.065Z,2.80
2022-12-28T21:23:49.341Z,3.35
2022-12-28T21:26:18.542Z,3.25
2022-12-28T21:28:46.175Z,3.50
2022-12-28T21:31:14.154Z,3.97
2022-12-28T21:33:41.691Z,2.50
2022-12-28T21:36:18.250Z,6.78
2022-12-28T21:41:40.671Z,2.83
2022-12-28T21:44:09.940Z,2.55
2022-12-28T21:46:37.390Z,13.85
2022-12-28T21:49:05.182Z,3.67
2022-12-28T21:51:36.415Z,2.47
2022-12-28T21:54:23.739Z,3.42
2022-12-28T21:56:55.583Z,2.13
2022-12-28T21:59:24.379Z,4.03
2022-12-28T22:02:10.622Z,2.53
2022-12-28T22:05:02.157Z,4.57
2022-12-28T22:07:29.842Z,3.30
2022-12-28T22:10:15.242Z,2.58
2022-12-28T22:12:42.171Z,4.45
2022-12-28T22:15:34.581Z,1.70
2022-12-28T22:18:07.198Z,2.13
2022-12-28T22:20:37.347Z,3.85
2022-12-28T22:23:05.197Z,2.30
2022-12-28T22:25:32.952Z,3.50
2022-12-28T22:28:00.413Z,2.75
2022-12-28T22:30:28.443Z,4.35
2022-12-28T22:32:56.641Z,3.25
2022-12-28T22:35:23.862Z,3.22
2022-12-28T22:37:51.065Z,3.28
2022-12-28T22:40:18.972Z,2.30
2022-12-28T22:42:50.098Z,4.28
2022-12-28T22:45:19.488Z,3.28
2022-12-28T22:47:47.163Z,2.67
2022-12-28T22:50:17.196Z,2.65
2022-12-28T22:52:44.799Z,2.17
2022-12-28T22:55:12.395Z,2.83
2022-12-28T22:57:39.668Z,2.28
2022-12-28T23:00:09.171Z,2.53
2022-12-28T23:02:36.688Z,2.90
2022-12-28T23:05:04.669Z,2.13
2022-12-28T23:07:31.744Z,5.13
2022-12-28T23:09:58.670Z,6.18
2022-12-28T23:12:25.668Z,2.70
2022-12-28T23:15:10.944Z,2.20
2022-12-28T23:17:37.982Z,2.22
2022-12-28T23:20:23.901Z,2.95
2022-12-28T23:23:11.040Z,2.22
2022-12-28T23:25:59.065Z,3.05
2022-12-28T23:28:26.588Z,2.85
2022-12-28T23:30:53.964Z,2.85
2022-12-28T23:33:21.032Z,2.53
2022-12-28T23:35:48.731Z,2.55
2022-12-28T23:38:15.729Z,5.68
2022-12-28T23:40:42.696Z,3.47
2022-12-28T23:43:09.869Z,3.38
2022-12-28T23:45:36.964Z,4.07
2022-12-28T23:48:04.961Z,3.60
2022-12-28T23:50:32.159Z,3.38
2022-12-28T23:52:59.055Z,4.82
2022-12-28T23:55:26.086Z,4.05
2022-12-28T23:57:53.052Z,5.63
